Terminal Aerodrome Forecast
Issued by NWS

Home | Current Version | Previous Version | Text Only | Print | Product List | Glossary On
Versions: 1 2 3 4 5 6 7 8 9 10 11 12 13
971
FTUS46 KMTR 101720
TAFMRY
TAF
KMRY 101720Z 1018/1118 30005KT P6SM SCT200
     FM110300 10003KT P6SM SCT200
     FM111700 27004KT P6SM SCT200=

USA.gov is the U.S. government's official web portal to all federal, state and local government web resources and services.